Time;durP1;ratioP1;P1;durP2;ratioP2;P2;SDS_P1;SDS_P2;PMS_P1;PMS_P2;Temp;Humidity;BMP_temperature;BMP_pressure;BME280_temperature;BME280_humidity;BME280_pressure;Samples;Min_cycle;Max_cycle;Signal;HPM_P1;HPM_P2
2023/08/06 00:01:02;;;;;;;;;;;;;;;12.63;100.00;100602.19;5067847;28;19920;-90
2023/08/06 00:03:48;;;;;;;;;;;;;;;12.63;100.00;100595.09;5060338;28;20362;-88
2023/08/06 00:06:37;;;;;;;;;;;;;;;12.63;100.00;100604.84;5061789;28;19928;-89
2023/08/06 00:09:23;;;;;;;;;;;;;;;12.62;100.00;100601.34;5062464;28;19927;-88
2023/08/06 00:12:08;;;;;;;;;;;;;;;12.63;100.00;100597.75;5068051;28;19957;-85
2023/08/06 00:14:54;;;;;;;;;;;;;;;12.62;100.00;100600.47;5051705;28;19982;-88
2023/08/06 00:17:45;;;;;;;;;;;;;;;12.62;100.00;100600.47;5059132;28;19923;-90
2023/08/06 00:20:31;;;;;;;;;;;;;;;12.62;100.00;100601.34;5079086;28;19943;-88
2023/08/06 00:23:17;;;;;;;;;;;;;;;12.66;100.00;100596.72;5060669;28;19973;-88
2023/08/06 00:26:03;;;;;;;;;;;;;;;12.66;100.00;100594.06;5067090;28;21462;-88
2023/08/06 00:28:51;;;;;;;;;;;;;;;12.68;100.00;100594.81;5037830;28;19955;-88
2023/08/06 00:31:37;;;;;;;;;;;;;;;12.69;100.00;100595.69;5043420;28;19924;-90
2023/08/06 00:34:23;;;;;;;;;;;;;;;12.69;100.00;100593.03;5076384;28;19903;-89
2023/08/06 00:37:08;;;;;;;;;;;;;;;12.69;100.00;100593.88;5073335;28;19920;-87
2023/08/06 00:39:54;;;;;;;;;;;;;;;12.70;100.00;100598.22;5048341;28;19923;-89
2023/08/06 00:42:40;;;;;;;;;;;;;;;12.71;100.00;100591.13;5075144;28;19947;-87
2023/08/06 00:45:25;;;;;;;;;;;;;;;12.70;100.00;100592.06;5065465;28;19946;-89
2023/08/06 00:48:11;;;;;;;;;;;;;;;12.71;100.00;100591.13;5052017;28;19931;-90
2023/08/06 00:50:57;;;;;;;;;;;;;;;12.74;100.00;100596.25;5066212;28;20619;-90
2023/08/06 00:54:05;;;;;;;;;;;;;;;12.73;100.00;100595.41;5063848;28;19924;-90
2023/08/06 00:56:50;;;;;;;;;;;;;;;12.75;100.00;100595.31;5074044;28;19920;-92
2023/08/06 00:59:38;;;;;;;;;;;;;;;12.74;100.00;100593.59;5089588;28;20394;-95
2023/08/06 01:02:51;;;;;;;;;;;;;;;12.75;100.00;100593.50;5091681;28;19920;-95
2023/08/06 01:05:37;;;;;;;;;;;;;;;12.76;100.00;100589.06;5070270;28;19928;-93
2023/08/06 01:08:28;;;;;;;;;;;;;;;12.77;100.00;100604.06;5221888;22;19967;-92
2023/08/06 01:11:18;;;;;;;;;;;;;;;12.76;100.00;100597.88;5115642;27;19930;-94
2023/08/06 01:14:08;;;;;;;;;;;;;;;12.74;100.00;100596.25;5135906;22;19916;-95
2023/08/06 01:16:54;;;;;;;;;;;;;;;12.74;100.00;100594.44;5076672;28;19928;-94
2023/08/06 01:19:39;;;;;;;;;;;;;;;12.76;100.00;100594.38;5084508;28;19924;-92
2023/08/06 01:22:25;;;;;;;;;;;;;;;12.74;100.00;100598.91;5080753;28;19930;-91
2023/08/06 01:25:10;;;;;;;;;;;;;;;12.75;100.00;100590.00;5095401;28;20309;-93
2023/08/06 01:27:56;;;;;;;;;;;;;;;12.78;100.00;100595.13;5084503;28;20773;-92
2023/08/06 01:30:42;;;;;;;;;;;;;;;12.79;100.00;100593.34;5099619;28;19926;-93
2023/08/06 01:33:35;;;;;;;;;;;;;;;12.77;100.00;100588.94;5090110;28;19923;-93
2023/08/06 01:36:51;;;;;;;;;;;;;;;12.79;100.00;100591.53;5080515;28;19927;-92
2023/08/06 01:39:37;;;;;;;;;;;;;;;12.79;100.00;100591.53;5079305;28;19919;-94
2023/08/06 01:42:23;;;;;;;;;;;;;;;12.80;100.00;100592.38;5085062;28;19950;-94
2023/08/06 01:45:09;;;;;;;;;;;;;;;12.81;100.00;100588.78;5096635;28;20498;-92
2023/08/06 01:47:54;;;;;;;;;;;;;;;12.83;100.00;100582.44;5086207;28;19915;-94
2023/08/06 01:50:40;;;;;;;;;;;;;;;12.82;100.00;100578.06;5098200;28;20352;-92
2023/08/06 01:53:25;;;;;;;;;;;;;;;12.83;100.00;100576.25;5073630;28;19981;-93
2023/08/06 01:56:11;;;;;;;;;;;;;;;12.83;100.00;100584.22;5070900;28;19977;-93
2023/08/06 01:58:57;;;;;;;;;;;;;;;12.82;100.00;100586.03;5070060;28;19923;-94
2023/08/06 02:01:45;;;;;;;;;;;;;;;12.83;100.00;100587.75;5085191;28;21584;-94
2023/08/06 02:04:31;;;;;;;;;;;;;;;12.81;100.00;100579.00;5078101;28;19924;-92
2023/08/06 02:07:21;;;;;;;;;;;;;;;12.83;100.00;100582.44;5068521;28;19924;-92
2023/08/06 02:10:06;;;;;;;;;;;;;;;12.85;100.00;100569.91;5072322;28;19949;-93
2023/08/06 02:12:52;;;;;;;;;;;;;;;12.86;100.00;100573.44;5077059;28;19924;-93
2023/08/06 02:15:45;;;;;;;;;;;;;;;12.86;100.00;100565.47;5067344;28;20335;-89
2023/08/06 02:18:31;;;;;;;;;;;;;;;12.85;100.00;100567.25;5074285;28;19972;-92
2023/08/06 02:21:16;;;;;;;;;;;;;;;12.83;100.00;100561.19;5068476;28;19927;-93
2023/08/06 02:24:02;;;;;;;;;;;;;;;12.86;100.00;100561.00;5069156;28;19927;-92
2023/08/06 02:26:50;;;;;;;;;;;;;;;12.87;100.00;100562.69;5069725;28;19919;-93
2023/08/06 02:29:42;;;;;;;;;;;;;;;12.85;100.00;100556.63;5075081;28;19971;-92
2023/08/06 02:32:29;;;;;;;;;;;;;;;12.86;100.00;100558.34;5086701;28;19934;-93
2023/08/06 02:35:15;;;;;;;;;;;;;;;12.86;100.00;100558.34;5073931;28;19916;-92
2023/08/06 02:38:00;;;;;;;;;;;;;;;12.84;100.00;100552.25;5075675;28;20089;-92
2023/08/06 02:40:46;;;;;;;;;;;;;;;12.84;100.00;100554.06;5101541;27;19924;-93
2023/08/06 02:43:32;;;;;;;;;;;;;;;12.82;100.00;100555.97;5088798;28;22131;-93
2023/08/06 02:46:22;;;;;;;;;;;;;;;12.82;100.00;100553.31;5096623;28;19920;-93
2023/08/06 02:49:07;;;;;;;;;;;;;;;12.83;100.00;100547.03;5113958;22;19924;-93
2023/08/06 02:51:53;;;;;;;;;;;;;;;12.84;100.00;100552.25;5079142;28;20311;-92
2023/08/06 02:54:49;;;;;;;;;;;;;;;12.85;100.00;100548.66;5097730;28;20084;-91
2023/08/06 02:57:37;;;;;;;;;;;;;;;12.85;100.00;100543.34;5100184;28;20410;-94
2023/08/06 03:00:23;;;;;;;;;;;;;;;12.87;100.00;100551.22;5096615;27;20250;-94
2023/08/06 03:03:09;;;;;;;;;;;;;;;12.86;100.00;100549.53;5052556;28;20461;-93
2023/08/06 03:05:55;;;;;;;;;;;;;;;12.86;100.00;100545.06;5054858;28;19942;-93
2023/08/06 03:08:41;;;;;;;;;;;;;;;12.85;100.00;100538.03;5070810;28;19928;-93
2023/08/06 03:11:29;;;;;;;;;;;;;;;12.84;100.00;100538.13;5084418;28;20416;-93
2023/08/06 03:14:14;;;;;;;;;;;;;;;12.84;100.00;100538.13;5055932;28;19931;-92
2023/08/06 03:17:00;;;;;;;;;;;;;;;12.82;100.00;100542.66;5054276;28;19924;-93
2023/08/06 03:19:46;;;;;;;;;;;;;;;12.80;100.00;100534.78;5057286;28;19908;-94
2023/08/06 03:22:31;;;;;;;;;;;;;;;12.79;100.00;100537.56;5052421;28;20987;-92
2023/08/06 03:25:17;;;;;;;;;;;;;;;12.79;100.00;100535.75;5083174;28;19920;-93
2023/08/06 03:28:03;;;;;;;;;;;;;;;12.77;100.00;100527.03;5068399;28;19972;-91
2023/08/06 03:30:58;;;;;;;;;;;;;;;12.79;100.00;100529.59;5065130;28;19927;-92
2023/08/06 03:33:53;;;;;;;;;;;;;;;12.77;100.00;100522.53;5062467;28;20022;-92
2023/08/06 03:36:45;;;;;;;;;;;;;;;12.80;100.00;100528.63;5067030;28;19924;-90
2023/08/06 03:39:31;;;;;;;;;;;;;;;12.78;100.00;100523.41;5064455;28;19931;-91
2023/08/06 03:42:17;;;;;;;;;;;;;;;12.79;100.00;100527.78;5057134;28;19920;-93
2023/08/06 03:45:03;;;;;;;;;;;;;;;12.80;100.00;100532.13;5049276;28;20018;-90
2023/08/06 03:47:49;;;;;;;;;;;;;;;12.79;100.00;100532.25;5058937;28;20604;-90
2023/08/06 03:50:35;;;;;;;;;;;;;;;12.77;100.00;100534.97;5068887;28;19916;-90
2023/08/06 03:53:23;;;;;;;;;;;;;;;12.76;100.00;100543.91;5063473;28;19926;-93
2023/08/06 03:56:10;;;;;;;;;;;;;;;12.70;100.00;100537.13;5059316;28;19924;-91
2023/08/06 03:58:55;;;;;;;;;;;;;;;12.69;100.00;100532.78;5049210;28;19939;-89
2023/08/06 04:01:41;;;;;;;;;;;;;;;12.68;100.00;100535.53;5041726;28;19931;-88
2023/08/06 04:04:27;;;;;;;;;;;;;;;12.68;100.00;100540.84;5055912;28;19981;-88
2023/08/06 04:07:12;;;;;;;;;;;;;;;12.66;100.00;100537.41;5041845;28;19951;-89
2023/08/06 04:09:59;;;;;;;;;;;;;;;12.66;100.00;100532.09;5052502;28;19958;-93
2023/08/06 04:12:44;;;;;;;;;;;;;;;12.65;100.00;100527.75;5077969;28;19916;-90
2023/08/06 04:15:30;;;;;;;;;;;;;;;12.65;100.00;100530.41;5074584;28;19931;-93
2023/08/06 04:18:16;;;;;;;;;;;;;;;12.63;100.00;100522.50;5039999;28;19971;-89
2023/08/06 04:21:02;;;;;;;;;;;;;;;12.63;100.00;100519.84;5062887;28;19920;-89
2023/08/06 04:23:50;;;;;;;;;;;;;;;12.62;100.00;100527.00;5071942;28;19916;-91
2023/08/06 04:26:36;;;;;;;;;;;;;;;12.65;100.00;100535.72;5068763;28;19939;-92
2023/08/06 04:29:21;;;;;;;;;;;;;;;12.66;100.00;100532.09;5061185;28;19991;-88
2023/08/06 04:32:08;;;;;;;;;;;;;;;12.66;100.00;100532.97;5072813;28;19928;-89
2023/08/06 04:34:55;;;;;;;;;;;;;;;12.66;100.00;100534.75;5062894;28;19915;-91
2023/08/06 04:37:41;;;;;;;;;;;;;;;12.67;100.00;100539.13;5045545;28;20404;-89
2023/08/06 04:40:27;;;;;;;;;;;;;;;12.71;100.00;100535.34;5058765;28;19928;-90
2023/08/06 04:43:12;;;;;;;;;;;;;;;12.71;100.00;100543.31;5073168;28;19928;-90
2023/08/06 04:45:59;;;;;;;;;;;;;;;12.71;100.00;100540.66;5061676;28;19993;-90
2023/08/06 04:48:46;;;;;;;;;;;;;;;12.72;100.00;100539.72;5063262;28;20002;-91
2023/08/06 04:51:32;;;;;;;;;;;;;;;12.73;100.00;100544.94;5075076;28;19970;-90
2023/08/06 04:54:18;;;;;;;;;;;;;;;12.77;100.00;100541.13;5044779;28;19919;-90
2023/08/06 04:57:04;;;;;;;;;;;;;;;12.78;100.00;100536.69;5057666;28;20143;-91
2023/08/06 04:59:50;;;;;;;;;;;;;;;12.79;100.00;100548.19;5052571;28;19928;-90
2023/08/06 05:02:37;;;;;;;;;;;;;;;12.80;100.00;100545.41;5065353;28;19927;-90
2023/08/06 05:05:23;;;;;;;;;;;;;;;12.81;100.00;100547.13;5046379;28;20025;-89
2023/08/06 05:08:16;;;;;;;;;;;;;;;12.83;100.00;100549.69;5044116;28;19935;-88
2023/08/06 05:11:04;;;;;;;;;;;;;;;12.85;100.00;100546.00;5045163;28;20064;-88
2023/08/06 05:13:49;;;;;;;;;;;;;;;12.89;100.00;100550.19;5070650;28;20016;-88
2023/08/06 05:16:35;;;;;;;;;;;;;;;12.92;100.00;100545.63;5069914;28;20004;-88
2023/08/06 05:19:20;;;;;;;;;;;;;;;12.95;100.00;100548.97;5069224;28;20231;-87
2023/08/06 05:22:06;;;;;;;;;;;;;;;13.00;100.00;100543.38;5071482;28;19945;-87
2023/08/06 05:24:52;;;;;;;;;;;;;;;13.08;100.00;100542.91;5042204;28;19927;-87
2023/08/06 05:27:38;;;;;;;;;;;;;;;13.10;100.00;100544.53;5066691;28;19928;-87
2023/08/06 05:30:23;;;;;;;;;;;;;;;13.15;100.00;100549.56;5036433;28;19975;-88
2023/08/06 05:33:10;;;;;;;;;;;;;;;13.18;100.00;100552.88;5054182;28;20019;-87
2023/08/06 05:35:55;;;;;;;;;;;;;;;13.21;100.00;100548.31;5057893;28;19923;-87
2023/08/06 05:38:41;;;;;;;;;;;;;;;13.18;100.00;100565.31;5053894;28;19928;-88
2023/08/06 05:41:27;;;;;;;;;;;;;;;13.20;100.00;100563.44;5040032;28;19931;-87
2023/08/06 05:44:12;;;;;;;;;;;;;;;13.20;100.00;100568.75;5053947;28;19932;-88
2023/08/06 05:46:58;;;;;;;;;;;;;;;13.23;100.00;100565.06;5058080;28;19931;-87
2023/08/06 05:49:44;;;;;;;;;;;;;;;13.21;100.00;100566.94;5037266;28;19931;-88
2023/08/06 05:52:29;;;;;;;;;;;;;;;13.23;100.00;100568.53;5067047;28;19924;-86
2023/08/06 05:55:15;;;;;;;;;;;;;;;13.26;100.00;100572.81;5049361;28;20370;-87
2023/08/06 05:58:01;;;;;;;;;;;;;;;13.28;100.00;100566.47;5068435;28;19928;-87
2023/08/06 06:00:47;;;;;;;;;;;;;;;13.32;100.00;100575.09;5067432;28;20010;-86
2023/08/06 06:03:35;;;;;;;;;;;;;;;13.34;100.00;100575.84;5038449;28;19927;-86
2023/08/06 06:06:20;;;;;;;;;;;;;;;13.40;100.00;100578.16;5053836;28;19924;-86
2023/08/06 06:09:06;;;;;;;;;;;;;;;13.41;100.00;100571.03;5052422;28;19924;-86
2023/08/06 06:11:52;;;;;;;;;;;;;;;13.46;100.00;100578.75;5055096;28;20023;-86
2023/08/06 06:14:37;;;;;;;;;;;;;;;13.49;100.00;100578.56;5073832;28;19924;-85
2023/08/06 06:17:29;;;;;;;;;;;;;;;13.54;100.00;100579.13;5071471;28;19924;-86
2023/08/06 06:20:14;;;;;;;;;;;;;;;13.57;100.00;100574.47;5069236;28;19928;-86
2023/08/06 06:23:00;;;;;;;;;;;;;;;13.64;100.00;100571.44;5067935;28;20361;-86
2023/08/06 06:25:51;;;;;;;;;;;;;;;13.69;100.00;100578.16;5048840;28;19928;-85
2023/08/06 06:28:37;;;;;;;;;;;;;;;13.78;100.00;100573.22;5058957;28;19963;-85
2023/08/06 06:31:22;;;;;;;;;;;;;;;13.92;100.00;100581.19;5071572;28;20370;-85
2023/08/06 06:34:08;;;;;;;;;;;;;;;14.20;100.00;100579.41;5058582;28;20327;-87
2023/08/06 06:36:54;;;;;;;;;;;;;;;14.33;100.00;100581.28;5073534;28;21903;-85
2023/08/06 06:39:39;;;;;;;;;;;;;;;14.51;100.00;100587.19;5073028;28;20292;-84
2023/08/06 06:42:28;;;;;;;;;;;;;;;14.62;100.00;100583.81;5076203;28;19924;-86
2023/08/06 06:45:14;;;;;;;;;;;;;;;14.71;100.00;100580.50;5058326;28;19942;-86
2023/08/06 06:47:59;;;;;;;;;;;;;;;14.79;100.00;100580.91;5060125;28;19927;-86
2023/08/06 06:50:48;;;;;;;;;;;;;;;14.82;100.00;100585.16;5069947;28;19982;-87
2023/08/06 06:53:34;;;;;;;;;;;;;;;14.85;100.00;100587.63;5052140;28;20015;-87
2023/08/06 06:56:19;;;;;;;;;;;;;;;14.86;100.00;100596.50;5069807;28;19924;-86
2023/08/06 06:59:08;;;;;;;;;;;;;;;14.84;100.00;100590.38;5070115;28;19927;-86
2023/08/06 07:01:54;;;;;;;;;;;;;;;14.85;100.00;100600.09;5066690;28;19936;-87
2023/08/06 07:04:39;;;;;;;;;;;;;;;14.83;100.00;100602.88;5055464;28;19930;-86
2023/08/06 07:07:25;;;;;;;;;;;;;;;14.82;100.00;100598.47;5055268;28;19935;-86
2023/08/06 07:10:14;;;;;;;;;;;;;;;14.85;100.00;100603.63;5073183;28;19938;-86
2023/08/06 07:13:00;;;;;;;;;;;;;;;14.89;100.00;100601.59;5056961;28;19931;-88
2023/08/06 07:15:48;;;;;;;;;;;;;;;14.93;100.00;100598.59;5053352;28;20700;-88
2023/08/06 07:18:33;;;;;;;;;;;;;;;14.94;100.00;100604.81;5053386;28;20421;-88
2023/08/06 07:21:19;;;;;;;;;;;;;;;15.00;100.00;100609.72;5065058;28;19949;-86
2023/08/06 07:24:05;;;;;;;;;;;;;;;15.00;100.00;100604.41;5055839;28;19932;-80
2023/08/06 07:26:52;;;;;;;;;;;;;;;15.03;100.00;100612.16;5070706;28;20218;-80
2023/08/06 07:29:38;;;;;;;;;;;;;;;15.05;100.00;100610.25;5055555;28;20019;-86
2023/08/06 07:32:23;;;;;;;;;;;;;;;15.07;100.00;100610.16;5055090;28;19926;-83
2023/08/06 07:35:12;;;;;;;;;;;;;;;15.20;100.00;100607.50;5070437;28;19921;-83
2023/08/06 07:37:57;;;;;;;;;;;;;;;15.27;100.00;100608.78;5054577;28;19928;-83
2023/08/06 07:40:43;;;;;;;;;;;;;;;15.38;100.00;100615.19;5065213;28;19927;-84
2023/08/06 07:43:29;;;;;;;;;;;;;;;15.54;100.00;100620.31;5064431;28;20410;-83
2023/08/06 07:46:15;;;;;;;;;;;;;;;15.49;100.00;100617.97;5065434;28;20046;-84
2023/08/06 07:49:01;;;;;;;;;;;;;;;15.53;100.00;100613.25;5066546;28;20126;-82
2023/08/06 07:51:51;;;;;;;;;;;;;;;15.58;100.00;100616.47;5065273;28;19924;-87
2023/08/06 07:54:39;;;;;;;;;;;;;;;15.68;100.00;100609.50;5052922;28;19919;-85
2023/08/06 07:57:25;;;;;;;;;;;;;;;15.78;100.00;100615.03;5049001;28;19991;-79
2023/08/06 08:00:11;;;;;;;;;;;;;;;15.86;100.00;100612.69;5050635;28;19927;-80
2023/08/06 08:02:57;;;;;;;;;;;;;;;16.03;100.00;100613.31;5062096;28;19931;-80
2023/08/06 08:05:43;;;;;;;;;;;;;;;16.21;100.00;100615.59;5063336;28;19924;-80
2023/08/06 08:08:29;;;;;;;;;;;;;;;16.33;100.00;100612.03;5064051;28;19920;-80
2023/08/06 08:11:15;;;;;;;;;;;;;;;16.35;100.00;100607.44;5062927;28;19928;-80
2023/08/06 08:14:02;;;;;;;;;;;;;;;16.41;100.00;100612.31;5034640;28;20979;-80
2023/08/06 08:16:50;;;;;;;;;;;;;;;16.49;100.00;100613.56;5035702;28;19924;-79
2023/08/06 08:19:43;;;;;;;;;;;;;;;16.57;100.00;100619.22;5058392;28;19923;-78
2023/08/06 08:22:29;;;;;;;;;;;;;;;16.75;100.00;100614.31;5049549;28;20045;-79
2023/08/06 08:25:15;;;;;;;;;;;;;;;16.95;100.00;100603.94;5061666;28;19939;-79
2023/08/06 08:28:01;;;;;;;;;;;;;;;17.19;100.00;100613.72;5048805;28;19920;-78
2023/08/06 08:30:46;;;;;;;;;;;;;;;17.28;100.00;100602.34;5062363;28;19959;-82
2023/08/06 08:33:33;;;;;;;;;;;;;;;17.28;100.00;100614.84;5047577;28;19959;-78
2023/08/06 08:36:18;;;;;;;;;;;;;;;17.30;100.00;100604.88;5061998;28;20712;-79
2023/08/06 08:39:04;;;;;;;;;;;;;;;17.33;100.00;100608.16;5062095;28;20324;-80
2023/08/06 08:41:50;;;;;;;;;;;;;;;17.33;100.00;100612.66;5050466;28;19924;-80
2023/08/06 08:44:39;;;;;;;;;;;;;;;17.30;100.00;100610.22;5034693;28;19920;-79
2023/08/06 08:47:25;;;;;;;;;;;;;;;17.26;100.00;100611.44;5050315;28;20278;-79
2023/08/06 08:50:11;;;;;;;;;;;;;;;17.24;100.00;100608.88;5034750;28;20442;-79
2023/08/06 08:52:59;;;;;;;;;;;;;;;17.22;100.00;100609.00;5066136;28;19920;-81
2023/08/06 08:55:46;;;;;;;;;;;;;;;17.20;100.00;100621.63;5052731;28;20072;-80
2023/08/06 08:58:34;;;;;;;;;;;;;;;17.17;100.00;100619.19;5050278;28;20568;-79
2023/08/06 09:01:20;;;;;;;;;;;;;;;17.18;100.00;100622.72;5033588;28;19935;-80
2023/08/06 09:04:06;;;;;;;;;;;;;;;17.21;100.00;100619.81;5046689;28;20338;-79
2023/08/06 09:06:51;;;;;;;;;;;;;;;17.18;100.00;100620.91;5048474;28;20578;-79
2023/08/06 09:09:37;;;;;;;;;;;;;;;17.17;100.00;100627.22;5047603;28;19931;-78
2023/08/06 09:12:23;;;;;;;;;;;;;;;17.21;100.00;100631.38;5030927;28;19924;-79
2023/08/06 09:15:13;;;;;;;;;;;;;;;17.22;100.00;100626.88;5047996;28;20034;-80
2023/08/06 09:17:58;;;;;;;;;;;;;;;17.22;100.00;100625.03;5047398;28;20352;-80
2023/08/06 09:20:44;;;;;;;;;;;;;;;17.23;100.00;100626.75;5034144;28;19963;-79
2023/08/06 09:23:30;;;;;;;;;;;;;;;17.18;100.00;100631.63;5032383;28;19949;-79
2023/08/06 09:26:16;;;;;;;;;;;;;;;17.17;100.00;100635.22;5046663;28;19932;-79
2023/08/06 09:29:03;;;;;;;;;;;;;;;17.17;100.00;100634.41;5032987;28;19989;-79
2023/08/06 09:31:52;;;;;;;;;;;;;;;17.20;100.00;100640.38;5027416;28;20700;-79
2023/08/06 09:34:47;;;;;;;;;;;;;;;17.28;100.00;100636.25;5045574;28;19924;-79
2023/08/06 09:37:35;;;;;;;;;;;;;;;17.32;100.00;100643.06;5044404;28;19925;-80
2023/08/06 09:40:24;;;;;;;;;;;;;;;17.36;100.00;100644.53;5032003;28;20449;-81
2023/08/06 09:43:11;;;;;;;;;;;;;;;17.43;100.00;100648.41;5044024;28;19931;-79
2023/08/06 09:45:56;;;;;;;;;;;;;;;17.49;100.00;100641.75;5030324;28;19924;-79
2023/08/06 09:48:46;;;;;;;;;;;;;;;17.58;100.00;100654.41;5032968;28;21535;-80
2023/08/06 09:51:31;;;;;;;;;;;;;;;17.67;100.00;100650.16;5048581;28;20050;-80
2023/08/06 09:54:18;;;;;;;;;;;;;;;17.76;100.00;100656.63;5063597;28;19924;-80
2023/08/06 09:57:05;;;;;;;;;;;;;;;17.83;100.00;100659.66;5060820;28;19951;-80
2023/08/06 09:59:59;;;;;;;;;;;;;;;17.86;100.00;100656.75;5045307;28;20319;-80
2023/08/06 10:02:49;;;;;;;;;;;;;;;17.89;100.00;100656.50;5051041;28;20152;-80
2023/08/06 10:05:38;;;;;;;;;;;;;;;17.92;100.00;100658.91;5048666;28;20406;-81
2023/08/06 10:08:24;;;;;;;;;;;;;;;17.95;100.00;100656.00;5056539;28;19954;-79
2023/08/06 10:11:14;;;;;;;;;;;;;;;17.95;100.00;100656.00;5053714;28;19927;-79
2023/08/06 10:14:20;;;;;;;;;;;;;;;17.94;100.00;100654.31;5065438;28;20047;-79
2023/08/06 10:17:06;;;;;;;;;;;;;;;17.88;100.00;100655.63;5066273;28;20431;-78
2023/08/06 10:19:54;;;;;;;;;;;;;;;17.93;100.00;100649.94;5059931;28;19996;-79
2023/08/06 10:22:44;;;;;;;;;;;;;;;18.03;100.00;100648.19;5047481;28;19920;-79
2023/08/06 10:25:35;;;;;;;;;;;;;;;18.15;100.00;100646.38;5061840;28;19924;-79
2023/08/06 10:28:21;;;;;;;;;;;;;;;18.27;100.00;100649.91;5065567;28;20011;-80
2023/08/06 10:31:06;;;;;;;;;;;;;;;18.47;100.00;100644.75;5042964;28;19924;-82
2023/08/06 10:33:52;;;;;;;;;;;;;;;18.55;100.00;100657.50;5055845;28;19924;-82
2023/08/06 10:36:38;;;;;;;;;;;;;;;18.55;100.00;100653.00;5066503;28;21943;-79
2023/08/06 10:39:23;;;;;;;;;;;;;;;18.49;100.00;100653.50;5066809;28;19920;-79
2023/08/06 10:42:20;;;;;;;;;;;;;;;18.40;100.00;100654.25;5068687;28;20682;-81
2023/08/06 10:45:16;;;;;;;;;;;;;;;18.34;100.00;100654.78;5068741;28;21609;-84
2023/08/06 10:48:01;;;;;;;;;;;;;;;18.35;100.00;100657.31;5070046;28;20384;-83
2023/08/06 10:50:47;;;;;;;;;;;;;;;18.36;100.00;100656.31;5070538;28;19924;-84
2023/08/06 10:53:33;;;;;;;;;;;;;;;18.27;100.00;100649.91;5058316;28;19928;-84
2023/08/06 10:56:22;;;;;;;;;;;;;;;18.23;100.00;100659.16;5060748;28;20020;-83
2023/08/06 10:59:10;;;;;;;;;;;;;;;18.17;100.00;100656.97;5073844;28;20982;-84
2023/08/06 11:01:55;;;;;;;;;;;;;;;18.15;100.00;100661.63;5061435;28;19932;-82
2023/08/06 11:04:47;;;;;;;;;;;;;;;18.07;100.00;100659.53;5073330;28;19924;-84
2023/08/06 11:07:33;;;;;;;;;;;;;;;18.02;100.00;100665.25;5042580;28;19928;-82
2023/08/06 11:10:19;;;;;;;;;;;;;;;17.97;100.00;100654.03;5047366;28;19927;-82
2023/08/06 11:13:07;;;;;;;;;;;;;;;17.94;100.00;100659.66;5073539;28;19981;-85
2023/08/06 11:18:33;;;;;;;;;;;;;;;17.90;100.00;100663.53;5057299;28;19954;-84
2023/08/06 11:21:22;;;;;;;;;;;;;;;17.88;100.00;100670.84;5037876;28;19960;-79
2023/08/06 11:24:08;;;;;;;;;;;;;;;17.87;100.00;100664.63;5051462;28;19929;-85
2023/08/06 11:26:54;;;;;;;;;;;;;;;17.87;100.00;100663.81;5050338;28;19933;-84
2023/08/06 11:29:43;;;;;;;;;;;;;;;17.84;100.00;100666.72;5050390;28;20694;-84
2023/08/06 11:32:28;;;;;;;;;;;;;;;17.80;100.00;100660.75;5049507;28;19924;-83
2023/08/06 11:35:15;;;;;;;;;;;;;;;17.83;100.00;100665.00;5049497;28;19928;-78
2023/08/06 11:38:00;;;;;;;;;;;;;;;17.86;100.00;100668.28;5048933;28;19959;-80
2023/08/06 11:40:47;;;;;;;;;;;;;;;17.88;100.00;100660.16;5035020;28;19920;-79
2023/08/06 11:43:33;;;;;;;;;;;;;;;17.86;100.00;100667.47;5046596;28;20370;-81
2023/08/06 11:46:18;;;;;;;;;;;;;;;17.85;100.00;100658.56;5047843;28;19932;-81
2023/08/06 11:49:04;;;;;;;;;;;;;;;17.85;100.00;100665.72;5050659;28;20624;-81
2023/08/06 11:51:49;;;;;;;;;;;;;;;17.88;100.00;100660.97;5046632;28;20108;-80
2023/08/06 11:54:37;;;;;;;;;;;;;;;17.90;100.00;100663.53;5047149;28;20015;-81
2023/08/06 11:57:22;;;;;;;;;;;;;;;17.89;100.00;100657.34;5048860;28;20490;-80
2023/08/06 12:00:12;;;;;;;;;;;;;;;17.99;100.00;100662.81;5032979;28;19931;-81
2023/08/06 12:02:57;;;;;;;;;;;;;;;18.14;100.00;100670.63;5052371;28;19931;-82
2023/08/06 12:05:43;;;;;;;;;;;;;;;18.18;100.00;100662.22;5037961;28;20065;-83
2023/08/06 12:08:31;;;;;;;;;;;;;;;18.24;100.00;100668.91;5049030;28;19920;-83
2023/08/06 12:11:19;;;;;;;;;;;;;;;18.36;100.00;100660.84;5063941;28;20007;-82
2023/08/06 12:14:05;;;;;;;;;;;;;;;18.56;100.00;100665.44;5048914;28;20278;-84
2023/08/06 12:16:51;;;;;;;;;;;;;;;18.81;100.00;100670.59;5062737;28;19923;-85
2023/08/06 12:19:37;;;;;;;;;;;;;;;18.98;100.00;100669.16;5091922;28;19924;-79
2023/08/06 12:22:23;;;;;;;;;;;;;;;19.09;100.00;100687.94;5092106;28;20005;-80
2023/08/06 12:25:11;;;;;;;;;;;;;;;19.05;100.00;100681.13;5095403;28;19919;-81
2023/08/06 12:28:00;;;;;;;;;;;;;;;19.01;100.00;100682.31;5074198;28;19927;-81
2023/08/06 12:30:47;;;;;;;;;;;;;;;19.06;100.00;100680.13;5065185;28;19996;-82
2023/08/06 12:33:32;;;;;;;;;;;;;;;19.11;100.00;100679.75;5092446;28;19924;-83
2023/08/06 12:36:18;;;;;;;;;;;;;;;19.08;100.00;100680.88;5094660;28;19928;-79
2023/08/06 12:39:06;;;;;;;;;;;;;;;19.11;100.00;100682.41;5083623;28;20279;-79
2023/08/06 12:41:51;;;;;;;;;;;;;;;19.07;100.00;100684.50;5074980;28;19934;-81
2023/08/06 12:44:37;;;;;;;;;;;;;;;19.00;100.00;100683.28;5074308;28;20547;-79
2023/08/06 12:47:23;;;;;;;;;;;;;;;18.90;100.00;100690.44;5094032;28;20688;-79
2023/08/06 12:50:08;;;;;;;;;;;;;;;18.80;100.00;100680.44;5097571;28;20085;-77
2023/08/06 12:52:54;;;;;;;;;;;;;;;18.87;100.00;100689.69;5095232;28;19972;-80
2023/08/06 12:55:40;;;;;;;;;;;;;;;18.89;100.00;100686.03;5096743;28;20579;-82
2023/08/06 12:58:26;;;;;;;;;;;;;;;18.82;100.00;100696.41;5098490;28;19923;-81
2023/08/06 13:01:12;;;;;;;;;;;;;;;18.67;100.00;100694.03;5096634;28;19926;-78
2023/08/06 13:03:58;;;;;;;;;;;;;;;18.55;100.00;100692.34;5096064;28;19979;-81
2023/08/06 13:06:50;;;;;;;;;;;;;;;18.57;100.00;100698.44;5080188;28;20037;-80
2023/08/06 13:09:35;;;;;;;;;;;;;;;18.59;100.00;100700.00;5077869;28;19924;-83
2023/08/06 13:12:22;;;;;;;;;;;;;;;18.57;100.00;100707.34;5092379;28;19934;-81
2023/08/06 13:15:09;;;;;;;;;;;;;;;18.49;100.00;100699.06;5093729;28;19924;-79
2023/08/06 13:17:55;;;;;;;;;;;;;;;18.40;100.00;100708.72;5074780;28;19920;-79
2023/08/06 13:20:41;;;;;;;;;;;;;;;18.36;100.00;100709.91;5075391;28;20272;-81
2023/08/06 13:23:26;;;;;;;;;;;;;;;18.38;100.00;100713.34;5070992;28;19992;-80
2023/08/06 13:26:12;;;;;;;;;;;;;;;18.32;100.00;100709.31;5075807;28;19923;-80
2023/08/06 13:28:58;;;;;;;;;;;;;;;18.28;100.00;100715.91;5072726;28;19935;-80
2023/08/06 13:31:43;;;;;;;;;;;;;;;18.25;100.00;100718.00;5071752;28;19931;-80
2023/08/06 13:34:29;;;;;;;;;;;;;;;18.22;100.00;100712.88;5074530;28;19959;-78
2023/08/06 13:37:14;;;;;;;;;;;;;;;18.21;100.00;100720.06;5073191;28;19932;-80
2023/08/06 13:40:00;;;;;;;;;;;;;;;18.26;100.00;100720.53;5074947;28;19977;-77
2023/08/06 13:42:46;;;;;;;;;;;;;;;18.28;100.00;100715.91;5074316;28;19981;-79
2023/08/06 13:45:34;;;;;;;;;;;;;;;18.25;100.00;100724.19;5075556;28;20391;-80
2023/08/06 13:48:20;;;;;;;;;;;;;;;18.21;100.00;100722.75;5075894;28;19938;-79
2023/08/06 13:51:06;;;;;;;;;;;;;;;18.12;100.00;100731.50;5074375;28;19924;-80
2023/08/06 13:53:52;;;;;;;;;;;;;;;18.04;100.00;100732.94;5073780;28;19939;-82
2023/08/06 13:56:38;;;;;;;;;;;;;;;17.96;100.00;100726.47;5077755;28;19969;-80
2023/08/06 13:59:24;;;;;;;;;;;;;;;17.89;100.00;100732.34;5077910;28;20279;-81
2023/08/06 14:02:10;;;;;;;;;;;;;;;17.81;100.00;100734.72;5074323;28;19924;-77
2023/08/06 14:04:56;;;;;;;;;;;;;;;17.64;100.00;100738.72;5073913;28;19945;-77
2023/08/06 14:07:42;;;;;;;;;;;;;;;17.44;100.00;100742.94;5081020;28;19961;-83
2023/08/06 14:10:28;;;;;;;;;;;;;;;17.28;100.00;100748.59;5079127;28;19956;-84